Home > Products > Valid Products > TAF

000
FTUS42 KFFC 100148 AAA
TAFATL
TAF AMD
KATL 100148Z 1002/1106 30011G20KT P6SM VCSH SCT030 OVC060
     FM100600 30010G18KT P6SM VCSH BKN025
     FM101300 29012G22KT P6SM SCT025 OVC050
     FM101500 29015G25KT P6SM OVC050
     FM101800 29015G25KT P6SM SCT060
     FM110000 30011KT P6SM SCT100=



000
FTUS42 KFFC 100148 AAA
TAFATL
TAF AMD
KATL 100148Z 1002/1106 30011G20KT P6SM VCSH SCT030 OVC060
     FM100600 30010G18KT P6SM VCSH BKN025
     FM101300 29012G22KT P6SM SCT025 OVC050
     FM101500 29015G25KT P6SM OVC050
     FM101800 29015G25KT P6SM SCT060
     FM110000 30011KT P6SM SCT100=



000
FTUS42 KFFC 092338
TAFRYY
TAF
KRYY 092338Z 1000/1024 30010KT P6SM SCT030 OVC060
      TEMPO 1000/1004 6SM -SHSN BKN030
     FM100400 30008KT P6SM VCSH BKN025
     FM101300 29011KT P6SM SCT025 OVC050
     FM101500 29014G24KT P6SM OVC050
     FM101800 29014G24KT P6SM SCT060
      AMD NOT SKED 1004/1012=



000
FTUS42 KFFC 092338
TAFCSG
TAF
KCSG 092338Z 1000/1024 30010KT P6SM VCSH SCT050
      TEMPO 1000/1004 BKN050
     FM101500 30012G22KT P6SM SKC=



000
FTUS42 KFFC 092338
TAFAHN
TAF
KAHN 092338Z 1000/1024 30010KT P6SM SCT030 OVC060
      TEMPO 1000/1004 6SM -SHSN BKN030
     FM100400 30008KT P6SM VCSH BKN040
     FM101300 29011KT P6SM OVC050
     FM101500 29012G22KT P6SM OVC050
     FM101800 29012G22KT P6SM SCT060=



000
FTUS42 KFFC 092338
TAFMCN
TAF
KMCN 092338Z 1000/1024 30010KT P6SM VCSH SCT050 OVC080
      TEMPO 1000/1004 BKN050
     FM101500 29015G25KT P6SM SKC=



000
FTUS42 KFFC 092338
TAFFTY
TAF
KFTY 092338Z 1000/1024 30010KT P6SM SCT030 OVC060
      TEMPO 1000/1004 6SM -SHSN BKN030
     FM100400 30008KT P6SM VCSH BKN025
     FM101300 29011KT P6SM SCT025 OVC050
     FM101500 29014G24KT P6SM OVC050
     FM101800 29014G24KT P6SM SCT060=



000
FTUS42 KFFC 092338
TAFPDK
TAF
KPDK 092338Z 1000/1024 30010KT P6SM SCT030 OVC060
      TEMPO 1000/1004 6SM -SHSN BKN030
     FM100400 30008KT P6SM VCSH BKN025
     FM101300 29011KT P6SM SCT025 OVC050
     FM101500 29014G24KT P6SM OVC050
     FM101800 29014G24KT P6SM SCT060=



000
FTUS42 KFFC 092338
TAFATL
TAF
KATL 092338Z 1000/1106 28012G22KT P6SM SCT030 OVC060
      TEMPO 1000/1004 6SM -SHSN BKN030
     FM100400 30012G18KT P6SM VCSH BKN025
     FM101300 29012G22KT P6SM SCT025 OVC050
     FM101500 29015G25KT P6SM OVC050
     FM101800 29015G25KT P6SM SCT060
     FM110000 30011KT P6SM SCT100=



000
FTUS42 KFFC 092146 AAB
TAFATL
TAF AMD
KATL 092146Z 0922/1024 28014G25KT P6SM SCT030 BKN040 OVC070
      TEMPO 0922/1002 6SM -SHSN BKN030
     FM100200 30012G18KT P6SM VCSH BKN030
     FM101500 29015G25KT P6SM SCT035=



000
FTUS42 KFFC 091934 AAA
TAFFTY
TAF AMD
KFTY 091934Z 0920/1018 28012G22KT P6SM SCT030 BKN045 OVC070
      TEMPO 0920/0924 5SM -SHSN BKN025
     FM100000 29008KT P6SM -SHSN BKN035 OVC070
     FM100400 29007KT P6SM BKN030
     FM101500 29012G22KT P6SM SCT035=



000
FTUS42 KFFC 091932 AAA
TAFAHN
TAF AMD
KAHN 091932Z 0920/1018 29012G22KT P6SM SCT025 BKN035 OVC050
      TEMPO 0920/0924 3SM -SHSN BKN025
     FM100000 28010KT P6SM SCT040 BKN090
     FM100500 28008KT P6SM SCT030
     FM101500 29012G22KT P6SM FEW035=



000
FTUS42 KFFC 091932 AAA
TAFAHN
TAF AMD
KAHN 091932Z 0920/1018 29012G22KT P6SM SCT025 BKN035 OVC050
      TEMPO 0920/0924 3SM -SHSN BKN025
     FM100000 28010KT P6SM SCT040 BKN090
     FM100500 28008KT P6SM SCT030
     FM101500 29012G22KT P6SM FEW035=



000
FTUS42 KFFC 091931 AAA
TAFATL
TAF AMD
KATL 091931Z 0920/1024 28014G25KT P6SM SCT030 BKN040 OVC070
      TEMPO 0920/0924 6SM -SHSN BKN030
     FM100000 30012KT P6SM BKN035 OVC070
     FM100400 30010KT P6SM BKN030
     FM101500 29015G25KT P6SM SCT035=



000
FTUS42 KFFC 091931 AAA
TAFATL
TAF AMD
KATL 091931Z 0920/1024 28014G25KT P6SM SCT030 BKN040 OVC070
      TEMPO 0920/0924 6SM -SHSN BKN030
     FM100000 30012KT P6SM BKN035 OVC070
     FM100400 30010KT P6SM BKN030
     FM101500 29015G25KT P6SM SCT035=



000
FTUS42 KFFC 091928 AAA
TAFPDK
TAF AMD
KPDK 091928Z 0919/1018 29012G22KT P6SM -SHSN SCT030 OVC045
      TEMPO 0919/0923 3SM -SHSN BKN025 OVC040
     FM100000 29012KT P6SM BKN035 OVC070
     FM100400 29010KT P6SM BKN030
     FM101500 29014G24KT P6SM SCT035=



000
FTUS42 KFFC 091928 AAA
TAFPDK
TAF AMD
KPDK 091928Z 0919/1018 29012G22KT P6SM -SHSN SCT030 OVC045
      TEMPO 0919/0923 3SM -SHSN BKN025 OVC040
     FM100000 29012KT P6SM BKN035 OVC070
     FM100400 29010KT P6SM BKN030
     FM101500 29014G24KT P6SM SCT035=



000
FTUS42 KFFC 091720
TAFMCN
TAF
KMCN 091720Z 0918/1018 28015G30KT P6SM BKN060
     FM100000 28010KT P6SM SCT050
      TEMPO 1000/1003 BKN050
     FM101500 29015G25KT P6SM SKC=



000
FTUS42 KFFC 091720
TAFFTY
TAF
KFTY 091720Z 0918/1018 28012G22KT P6SM -SHSN SCT025 BKN040 OVC070
      TEMPO 0918/0921 6SM -SHSN SCT015 BKN025
     FM092100 29010KT P6SM -SHSN BKN035 OVC070
     FM100400 29007KT P6SM BKN030
     FM101500 29012G22KT P6SM SCT035=



000
FTUS42 KFFC 091720
TAFPDK
TAF
KPDK 091720Z 0918/1018 28012G22KT P6SM -SHSN SCT025 BKN035 OVC050
      TEMPO 0918/0921 4SM -SHSN BKN015 OVC030
     FM092100 29012KT P6SM -SHSN BKN030 OVC070
     FM100400 29010KT P6SM BKN030
     FM101500 29014G24KT P6SM SCT035=



000
FTUS42 KFFC 091720
TAFCSG
TAF
KCSG 091720Z 0918/1018 29014G22KT P6SM BKN060
     FM100000 30010KT P6SM SCT050
      TEMPO 1000/1003 BKN050
     FM101500 30012G22KT P6SM SKC=



000
FTUS42 KFFC 091720
TAFAHN
TAF
KAHN 091720Z 0918/1018 29012G22KT P6SM SCT025 BKN040 OVC060
      TEMPO 0918/0921 6SM -SHSN BKN025
     FM092200 28010KT P6SM SCT040 BKN090
     FM100500 28008KT P6SM SCT030
     FM101500 29012G22KT P6SM FEW035=



000
FTUS42 KFFC 091720
TAFRYY
TAF
KRYY 091720Z 0918/1018 29012G22KT 6SM -SHSN SCT015 OVC035
      TEMPO 0918/0921 3SM -SHSN BKN015 OVC030
     FM092100 30010KT P6SM -SHSN BKN030 OVC050
     FM100400 29008KT P6SM BKN025
     FM101500 30014G24KT P6SM SCT030=



000
FTUS42 KFFC 091720
TAFATL
TAF
KATL 091720Z 0918/1024 28014G24KT P6SM -SHSN SCT025 BKN040 OVC080
      TEMPO 0918/0921 6SM -SHSN SCT015 BKN025
     FM092100 29012G22KT P6SM -SHSN BKN035 OVC070
     FM100400 30010KT P6SM BKN030
     FM101500 29015G25KT P6SM SCT035=



000
FTUS42 KFFC 091720
TAFATL
TAF
KATL 091720Z 0918/1024 28014G24KT P6SM -SHSN SCT025 BKN040 OVC080
      TEMPO 0918/0921 6SM -SHSN SCT015 BKN025
     FM092100 29012G22KT P6SM -SHSN BKN035 OVC070
     FM100400 30010KT P6SM BKN030
     FM101500 29015G25KT P6SM SCT035=



000
FTUS42 KFFC 091720
TAFPDK
TAF
KPDK 091720Z 0918/1018 28012G22KT P6SM -SHSN SCT025 BKN035 OVC050
      TEMPO 0918/0921 4SM -SHSN BKN015 OVC030
     FM092100 29012KT P6SM -SHSN BKN030 OVC070
     FM100400 29010KT P6SM BKN030
     FM101500 29014G24KT P6SM SCT035=



000
FTUS42 KFFC 091720
TAFMCN
TAF
KMCN 091720Z 0918/1018 28015G30KT P6SM BKN060
     FM100000 28010KT P6SM SCT050
      TEMPO 1000/1003 BKN050
     FM101500 29015G25KT P6SM SKC=



000
FTUS42 KFFC 091720
TAFRYY
TAF
KRYY 091720Z 0918/1018 29012G22KT 6SM -SHSN SCT015 OVC035
      TEMPO 0918/0921 3SM -SHSN BKN015 OVC030
     FM092100 30010KT P6SM -SHSN BKN030 OVC050
     FM100400 29008KT P6SM BKN025
     FM101500 30014G24KT P6SM SCT030=



000
FTUS42 KFFC 091720
TAFAHN
TAF
KAHN 091720Z 0918/1018 29012G22KT P6SM SCT025 BKN040 OVC060
      TEMPO 0918/0921 6SM -SHSN BKN025
     FM092200 28010KT P6SM SCT040 BKN090
     FM100500 28008KT P6SM SCT030
     FM101500 29012G22KT P6SM FEW035=



000
FTUS42 KFFC 091720
TAFCSG
TAF
KCSG 091720Z 0918/1018 29014G22KT P6SM BKN060
     FM100000 30010KT P6SM SCT050
      TEMPO 1000/1003 BKN050
     FM101500 30012G22KT P6SM SKC=



000
FTUS42 KFFC 091720
TAFFTY
TAF
KFTY 091720Z 0918/1018 28012G22KT P6SM -SHSN SCT025 BKN040 OVC070
      TEMPO 0918/0921 6SM -SHSN SCT015 BKN025
     FM092100 29010KT P6SM -SHSN BKN035 OVC070
     FM100400 29007KT P6SM BKN030
     FM101500 29012G22KT P6SM SCT035=



000
FTUS42 KFFC 091541 AAA
TAFRYY
TAF AMD
KRYY 091541Z 0916/1012 28012G22KT 6SM -SHSN SCT020 OVC030
      TEMPO 0916/0920 3SM -SHSN OVC020
     FM092000 30010KT P6SM -SHSN BKN030 OVC070
     FM100400 30010KT P6SM BKN030=



000
FTUS42 KFFC 091541 AAA
TAFRYY
TAF AMD
KRYY 091541Z 0916/1012 28012G22KT 6SM -SHSN SCT020 OVC030
      TEMPO 0916/0920 3SM -SHSN OVC020
     FM092000 30010KT P6SM -SHSN BKN030 OVC070
     FM100400 30010KT P6SM BKN030=



000
FTUS42 KFFC 091537 AAA
TAFPDK
TAF AMD
KPDK 091537Z 0916/1012 29012G22KT 6SM -SHSN SCT020 BKN030 OVC050
      TEMPO 0916/0920 4SM -SHSN OVC020
     FM092000 30012KT P6SM -SHSN BKN030 OVC070
     FM100400 29010KT P6SM BKN030=



000
FTUS42 KFFC 091530 AAB
TAFATL
TAF AMD
KATL 091530Z 0916/1018 28014G24KT P6SM -SHSN SCT025 BKN040 OVC070
      TEMPO 0916/0920 5SM -SHSN SCT015 BKN025
     FM092000 29012G22KT P6SM -SHSN BKN035 OVC070
     FM100400 29010KT P6SM BKN030
     FM101200 29012G22KT P6SM SCT035=



000
FTUS42 KFFC 091530 AAB
TAFATL
TAF AMD
KATL 091530Z 0916/1018 28014G24KT P6SM -SHSN SCT025 BKN040 OVC070
      TEMPO 0916/0920 5SM -SHSN SCT015 BKN025
     FM092000 29012G22KT P6SM -SHSN BKN035 OVC070
     FM100400 29010KT P6SM BKN030
     FM101200 29012G22KT P6SM SCT035=



000
FTUS42 KFFC 091345 AAA
TAFATL
TAF AMD
KATL 091345Z 0914/1018 28014G24KT P6SM -SHSN SCT025 OVC030
      TEMPO 0916/0920 5SM -SHSN SCT015 BKN025
     FM092000 29012G22KT P6SM -SHSN BKN030 OVC070
     FM100400 29010KT P6SM BKN040=



000
FTUS42 KFFC 091120
TAFMCN
TAF
KMCN 091120Z 0912/1012 29010G18KT P6SM SCT040 BKN070
     FM091600 29012G23KT P6SM BKN040
     FM100000 28009KT P6SM SCT060=



000
FTUS42 KFFC 091120
TAFFTY
TAF
KFTY 091120Z 0912/1012 29012G22KT P6SM FEW025 BKN030
      TEMPO 0916/0920 6SM -SHSN BKN025
     FM092000 30010KT P6SM BKN030 PROB30 0921/1001 6SM -SHSN BKN025
     FM100400 29008KT P6SM BKN040=



000
FTUS42 KFFC 091120
TAFRYY
TAF
KRYY 091120Z 0912/1012 29012G22KT P6SM FEW025 BKN030
      TEMPO 0916/0920 6SM -SHSN BKN025
     FM092000 30010KT P6SM BKN030 PROB30 0921/1001 6SM -SHSN BKN025
     FM100400 29008KT P6SM BKN040=



000
FTUS42 KFFC 091120
TAFATL
TAF
KATL 091120Z 0912/1018 29014G24KT P6SM FEW025 BKN030
      TEMPO 0916/0920 6SM -SHSN BKN025
     FM092000 30012G20KT P6SM BKN030 PROB30 0921/1001 6SM -SHSN
      BKN025
     FM100400 29010KT P6SM BKN040=



000
FTUS42 KFFC 091120
TAFCSG
TAF
KCSG 091120Z 0912/1012 28011G19KT P6SM SCT035 BKN050
     FM091500 30012G23KT P6SM BKN035
     FM100200 30010KT P6SM SCT040 BKN100=



000
FTUS42 KFFC 091120
TAFPDK
TAF
KPDK 091120Z 0912/1012 29012G22KT P6SM FEW025 BKN030
      TEMPO 0916/0920 6SM -SHSN BKN025
     FM092000 30010KT P6SM BKN030 PROB30 0921/1001 6SM -SHSN BKN025
     FM100400 29008KT P6SM BKN040=



000
FTUS42 KFFC 091120
TAFAHN
TAF
KAHN 091120Z 0912/1012 29010G18KT P6SM SCT025 BKN040
     FM091600 29012G23KT P6SM BKN035
     FM100200 28010KT P6SM SCT040 BKN100=



000
FTUS42 KFFC 091120
TAFFTY
TAF
KFTY 091120Z 0912/1012 29012G22KT P6SM FEW025 BKN030
      TEMPO 0916/0920 6SM -SHSN BKN025
     FM092000 30010KT P6SM BKN030 PROB30 0921/1001 6SM -SHSN BKN025
     FM100400 29008KT P6SM BKN040=



000
FTUS42 KFFC 091120
TAFRYY
TAF
KRYY 091120Z 0912/1012 29012G22KT P6SM FEW025 BKN030
      TEMPO 0916/0920 6SM -SHSN BKN025
     FM092000 30010KT P6SM BKN030 PROB30 0921/1001 6SM -SHSN BKN025
     FM100400 29008KT P6SM BKN040=



000
FTUS42 KFFC 091120
TAFAHN
TAF
KAHN 091120Z 0912/1012 29010G18KT P6SM SCT025 BKN040
     FM091600 29012G23KT P6SM BKN035
     FM100200 28010KT P6SM SCT040 BKN100=



000
FTUS42 KFFC 091120
TAFCSG
TAF
KCSG 091120Z 0912/1012 28011G19KT P6SM SCT035 BKN050
     FM091500 30012G23KT P6SM BKN035
     FM100200 30010KT P6SM SCT040 BKN100=



000
FTUS42 KFFC 091120
TAFATL
TAF
KATL 091120Z 0912/1018 29014G24KT P6SM FEW025 BKN030
      TEMPO 0916/0920 6SM -SHSN BKN025
     FM092000 30012G20KT P6SM BKN030 PROB30 0921/1001 6SM -SHSN
      BKN025
     FM100400 29010KT P6SM BKN040=



000
FTUS42 KFFC 091120
TAFPDK
TAF
KPDK 091120Z 0912/1012 29012G22KT P6SM FEW025 BKN030
      TEMPO 0916/0920 6SM -SHSN BKN025
     FM092000 30010KT P6SM BKN030 PROB30 0921/1001 6SM -SHSN BKN025
     FM100400 29008KT P6SM BKN040=



000
FTUS42 KFFC 091120
TAFMCN
TAF
KMCN 091120Z 0912/1012 29010G18KT P6SM SCT040 BKN070
     FM091600 29012G23KT P6SM BKN040
     FM100000 28009KT P6SM SCT060=



000
FTUS42 KFFC 090947 AAB
TAFATL
TAF AMD
KATL 090947Z 0910/1012 30011G20KT P6SM BKN035 BKN050
     FM091200 29014G24KT P6SM -SN FEW015 BKN030
     FM092200 30012KT P6SM BKN030
     FM100400 29010KT P6SM BKN040=



000
FTUS42 KFFC 090755 AAA
TAFFTY
TAF AMD
KFTY 090755Z 0908/1006 29010G18KT P6SM BKN050 BKN070
     FM091200 29012G22KT P6SM -SN FEW015 BKN030
     FM092200 30010KT P6SM BKN030
     FM100400 29008KT P6SM BKN040=



000
FTUS42 KFFC 090755 AAA
TAFATL
TAF AMD
KATL 090755Z 0908/1012 30011G20KT P6SM BKN050 BKN070
     FM091200 29014G24KT P6SM -SN FEW015 BKN030
     FM092200 30012KT P6SM BKN030
     FM100400 29010KT P6SM BKN040=



000
FTUS42 KFFC 090755 AAA
TAFPDK
TAF AMD
KPDK 090755Z 0908/1006 30010G18KT P6SM BKN050 BKN070
     FM091200 29012G22KT P6SM -SN FEW015 BKN030
     FM092200 30010KT P6SM BKN030
     FM100400 29008KT P6SM BKN040=



000
FTUS42 KFFC 090523
TAFCSG
TAF
KCSG 090523Z 0906/1006 30008G16KT P6SM SCT060 BKN100
     FM091000 28011G20KT P6SM SCT035 BKN050
     FM091500 30012G22KT P6SM BKN035
     FM100200 30010KT P6SM SCT040 BKN100=



000
FTUS42 KFFC 090523
TAFAHN
TAF
KAHN 090523Z 0906/1006 30010G20KT P6SM SCT060 BKN100
     FM091100 29011G20KT P6SM SCT035 BKN050
     FM091800 29012G22KT P6SM BKN035
     FM100200 28010KT P6SM SCT040 BKN100=



000
FTUS42 KFFC 090523
TAFRYY
TAF
KRYY 090523Z 0906/1006 31008G16KT P6SM SCT050 BKN070
     FM091200 30012G22KT P6SM -SN FEW015 BKN030
     FM092200 30010KT P6SM BKN030
     FM100400 29008KT P6SM BKN040
      AMD NOT SKED TIL 091200=



000
FTUS42 KFFC 090523
TAFATL
TAF
KATL 090523Z 0906/1012 30011G18KT P6SM SCT050 BKN070
     FM091200 29012G24KT P6SM -SN FEW015 BKN030
     FM092200 30012KT P6SM BKN030
     FM100400 29010KT P6SM BKN040=



000
FTUS42 KFFC 090523
TAFMCN
TAF
KMCN 090523Z 0906/1006 31008KT P6SM SCT050 BKN100
     FM091100 29010G18KT P6SM SCT040 BKN070
     FM091800 29014G24KT P6SM BKN040
     FM100000 28009KT P6SM SCT060=



000
FTUS42 KFFC 090523
TAFPDK
TAF
KPDK 090523Z 0906/1006 30008G16KT P6SM SCT050 BKN070
     FM091200 29012G22KT P6SM -SN FEW015 BKN030
     FM092200 30010KT P6SM BKN030
     FM100400 29008KT P6SM BKN040=



000
FTUS42 KFFC 090523
TAFFTY
TAF
KFTY 090523Z 0906/1006 29008G16KT P6SM SCT050 BKN070
     FM091200 29011G21KT P6SM -SN FEW015 BKN030
     FM092200 30010KT P6SM BKN030
     FM100400 29008KT P6SM BKN040=



000
FTUS42 KFFC 090338 AAB
TAFATL
TAF AMD
KATL 090338Z 0904/1006 30012G20KT P6SM SCT050 BKN070
     FM091100 29012G25KT P6SM VCSH SCT025 BKN045 PROB30 0913/0918
      6SM -SHSN BKN025
     FM091800 29012G25KT P6SM BKN030 PROB30 0918/0923 6SM -SHSN
      BKN025
     FM092300 30012KT P6SM BKN030=



000
FTUS42 KFFC 090338 AAB
TAFATL
TAF AMD
KATL 090338Z 0904/1006 30012G20KT P6SM SCT050 BKN070
     FM091100 29012G25KT P6SM VCSH SCT025 BKN045 PROB30 0913/0918
      6SM -SHSN BKN025
     FM091800 29012G25KT P6SM BKN030 PROB30 0918/0923 6SM -SHSN
      BKN025
     FM092300 30012KT P6SM BKN030=



000
FTUS42 KFFC 090210 AAA
TAFCSG
TAF AMD
KCSG 090210Z 0902/0924 32011KT P6SM SCT070
     FM090600 29008KT P6SM BKN070
     FM091100 29011G18KT P6SM SCT040 BKN050
     FM091800 29014G24KT P6SM BKN040=



000
FTUS42 KFFC 090210 AAA
TAFCSG
TAF AMD
KCSG 090210Z 0902/0924 32011KT P6SM SCT070
     FM090600 29008KT P6SM BKN070
     FM091100 29011G18KT P6SM SCT040 BKN050
     FM091800 29014G24KT P6SM BKN040=



000
FTUS42 KFFC 090209 AAA
TAFATL
TAF AMD
KATL 090209Z 0902/1006 30012G20KT P6SM SCT050 BKN070
     FM091100 29012G25KT P6SM VCSH SCT025 BKN045 PROB30 0913/0918
      6SM -SHSN BKN025
     FM091800 29012G25KT P6SM BKN030 PROB30 0918/0923 6SM -SHSN
      BKN025
     FM092300 30012KT P6SM BKN030=



000
FTUS42 KFFC 090209 AAA
TAFATL
TAF AMD
KATL 090209Z 0902/1006 30012G20KT P6SM SCT050 BKN070
     FM091100 29012G25KT P6SM VCSH SCT025 BKN045 PROB30 0913/0918
      6SM -SHSN BKN025
     FM091800 29012G25KT P6SM BKN030 PROB30 0918/0923 6SM -SHSN
      BKN025
     FM092300 30012KT P6SM BKN030=



000
FTUS42 KFFC 082333
TAFPDK
TAF
KPDK 082333Z 0900/0924 30012G20KT P6SM BKN070
     FM090400 29010G18KT P6SM BKN070
     FM091100 29010G20KT P6SM VCSH SCT025 BKN045 PROB30 0913/0918
      6SM -SHSN BKN025
     FM091800 29012G22KT P6SM BKN030 PROB30 0918/0923 6SM -SHSN
      BKN025
     FM092300 30012KT P6SM BKN030=



000
FTUS42 KFFC 082333
TAFATL
TAF
KATL 082333Z 0900/1006 30014G24KT P6SM BKN070
     FM090400 29011G20KT P6SM BKN070
     FM091100 29012G25KT P6SM VCSH SCT025 BKN045 PROB30 0913/0918
      6SM -SHSN BKN025
     FM091800 29012G25KT P6SM BKN030 PROB30 0918/0923 6SM -SHSN
      BKN025
     FM092300 30012KT P6SM BKN030=



000
FTUS42 KFFC 082333
TAFCSG
TAF
KCSG 082333Z 0900/0924 32014G22KT P6SM BKN050
     FM090600 29010G16KT P6SM BKN070
     FM091100 29011G18KT P6SM SCT040 BKN050
     FM091800 29014G24KT P6SM BKN040=



000
FTUS42 KFFC 082333
TAFMCN
TAF
KMCN 082333Z 0900/0924 30008KT P6SM SCT080
     FM090600 29009G16KT P6SM BKN070
     FM091100 29011G18KT P6SM SCT040 BKN050
     FM091800 29014G24KT P6SM BKN040=



000
FTUS42 KFFC 082333
TAFRYY
TAF
KRYY 082333Z 0900/0924 30012G20KT P6SM BKN070
     FM090400 29010G18KT P6SM BKN070
     FM091100 29010G20KT P6SM VCSH SCT025 BKN045 PROB30 0913/0918
      6SM -SHSN BKN025
     FM091800 29012G22KT P6SM BKN030 PROB30 0918/0923 6SM -SHSN
      BKN025
     FM092300 30012KT P6SM BKN030
      AMD NOT SKED 0904/0912=



000
FTUS42 KFFC 082333
TAFFTY
TAF
KFTY 082333Z 0900/0924 30012G20KT P6SM BKN070
     FM090400 29010G18KT P6SM BKN070
     FM091100 29010G20KT P6SM VCSH SCT025 BKN045 PROB30 0913/0918
      6SM -SHSN BKN025
     FM091800 29012G22KT P6SM BKN030 PROB30 0918/0923 6SM -SHSN
      BKN025
     FM092300 30012KT P6SM BKN030=



000
FTUS42 KFFC 082333
TAFAHN
TAF
KAHN 082333Z 0900/0924 30010G19KT P6SM OVC080
     FM090500 29009G16KT P6SM BKN070
     FM091100 29010G18KT P6SM SCT025 BKN050
     FM091800 29011G22KT P6SM BKN030=



000
FTUS42 KFFC 082333
TAFPDK
TAF
KPDK 082333Z 0900/0924 30012G20KT P6SM BKN070
     FM090400 29010G18KT P6SM BKN070
     FM091100 29010G20KT P6SM VCSH SCT025 BKN045 PROB30 0913/0918
      6SM -SHSN BKN025
     FM091800 29012G22KT P6SM BKN030 PROB30 0918/0923 6SM -SHSN
      BKN025
     FM092300 30012KT P6SM BKN030=



000
FTUS42 KFFC 082333
TAFFTY
TAF
KFTY 082333Z 0900/0924 30012G20KT P6SM BKN070
     FM090400 29010G18KT P6SM BKN070
     FM091100 29010G20KT P6SM VCSH SCT025 BKN045 PROB30 0913/0918
      6SM -SHSN BKN025
     FM091800 29012G22KT P6SM BKN030 PROB30 0918/0923 6SM -SHSN
      BKN025
     FM092300 30012KT P6SM BKN030=



000
FTUS42 KFFC 082333
TAFAHN
TAF
KAHN 082333Z 0900/0924 30010G19KT P6SM OVC080
     FM090500 29009G16KT P6SM BKN070
     FM091100 29010G18KT P6SM SCT025 BKN050
     FM091800 29011G22KT P6SM BKN030=



000
FTUS42 KFFC 082333
TAFCSG
TAF
KCSG 082333Z 0900/0924 32014G22KT P6SM BKN050
     FM090600 29010G16KT P6SM BKN070
     FM091100 29011G18KT P6SM SCT040 BKN050
     FM091800 29014G24KT P6SM BKN040=



000
FTUS42 KFFC 082333
TAFMCN
TAF
KMCN 082333Z 0900/0924 30008KT P6SM SCT080
     FM090600 29009G16KT P6SM BKN070
     FM091100 29011G18KT P6SM SCT040 BKN050
     FM091800 29014G24KT P6SM BKN040=



000
FTUS42 KFFC 082333
TAFRYY
TAF
KRYY 082333Z 0900/0924 30012G20KT P6SM BKN070
     FM090400 29010G18KT P6SM BKN070
     FM091100 29010G20KT P6SM VCSH SCT025 BKN045 PROB30 0913/0918
      6SM -SHSN BKN025
     FM091800 29012G22KT P6SM BKN030 PROB30 0918/0923 6SM -SHSN
      BKN025
     FM092300 30012KT P6SM BKN030
      AMD NOT SKED 0904/0912=



000
FTUS42 KFFC 082333
TAFATL
TAF
KATL 082333Z 0900/1006 30014G24KT P6SM BKN070
     FM090400 29011G20KT P6SM BKN070
     FM091100 29012G25KT P6SM VCSH SCT025 BKN045 PROB30 0913/0918
      6SM -SHSN BKN025
     FM091800 29012G25KT P6SM BKN030 PROB30 0918/0923 6SM -SHSN
      BKN025
     FM092300 30012KT P6SM BKN030=



000
FTUS42 KFFC 082159 AAA
TAFAHN
TAF AMD
KAHN 082159Z 0822/0918 29012G21KT P6SM BKN050
     FM090000 30010G19KT P6SM OVC030
     FM090500 29009G16KT P6SM BKN015
     FM091100 29010G18KT P6SM OVC025=



000
FTUS42 KFFC 082159 AAB
TAFMCN
TAF AMD
KMCN 082159Z 0822/0918 32011G23KT P6SM SCT045 BKN080
     FM090200 28008KT P6SM BKN050
     FM091500 27011G20KT P6SM SCT045 BKN080=



000
FTUS42 KFFC 082158 AAA
TAFRYY
TAF AMD
KRYY 082158Z 0822/0918 30015G25KT P6SM BKN050
     FM090000 30010G18KT P6SM VCSH OVC025
     FM090500 29009G16KT P6SM BKN015 PROB30 0907/0911 6SM -SHSN
     FM091100 29010G18KT P6SM OVC025 PROB30 0911/0917 6SM -SHSN
      BKN015=



000
FTUS42 KFFC 082157 AAB
TAFATL
TAF AMD
KATL 082157Z 0822/0924 29015G25KT P6SM VCSH SCT060 BKN070
     FM090000 30012G21KT P6SM VCSH BKN050
     FM090400 29011G20KT P6SM BKN025 PROB30 0907/0911 6SM -SHSN
      BKN015
     FM091100 29012G21KT P6SM OVC025 PROB30 0911/0917 6SM -SHSN
      BKN015=



000
FTUS42 KFFC 081955 AAA
TAFCSG
TAF AMD
KCSG 081955Z 0820/0918 28012G20KT P6SM SCT045 BKN080
      TEMPO 0820/0824 -SHRA BKN060
     FM090000 29008KT P6SM BKN050
     FM091500 27011G20KT P6SM SCT045 BKN080=



000
FTUS42 KFFC 081955 AAA
TAFMCN
TAF AMD
KMCN 081955Z 0820/0918 27011G20KT P6SM SCT045 BKN080
      TEMPO 0820/0824 -SHRA BKN060
     FM090200 28008KT P6SM BKN050
     FM091500 27011G20KT P6SM SCT045 BKN080=



000
FTUS42 KFFC 081953 AAA
TAFATL
TAF AMD
KATL 081953Z 0820/0924 26015G25KT P6SM VCSH SCT060 BKN070
     FM090000 30012G21KT P6SM VCSH BKN035
     FM090400 29011G20KT P6SM BKN025 PROB30 0905/0911 6SM -SHSN
      BKN015
     FM091100 29012G21KT P6SM OVC025 PROB30 0911/0917 6SM -SHSN
      BKN015=



000
FTUS42 KFFC 081953 AAA
TAFATL
TAF AMD
KATL 081953Z 0820/0924 26015G25KT P6SM VCSH SCT060 BKN070
     FM090000 30012G21KT P6SM VCSH BKN035
     FM090400 29011G20KT P6SM BKN025 PROB30 0905/0911 6SM -SHSN
      BKN015
     FM091100 29012G21KT P6SM OVC025 PROB30 0911/0917 6SM -SHSN
      BKN015=



000
FTUS42 KFFC 081743
TAFATL
TAF
KATL 081743Z 0818/0924 26010KT P6SM SCT050 BKN120
     FM081900 27015G25KT P6SM BKN045
      TEMPO 0820/0824 6SM -SHRA BKN035
     FM090000 30012G21KT P6SM VCSH OVC025
     FM090400 29011G20KT P6SM -SHSN BKN015
     FM091100 29012G21KT P6SM OVC025 PROB30 0911/0917 6SM -SHSN
      BKN015=



000
FTUS42 KFFC 081743
TAFPDK
TAF
KPDK 081743Z 0818/0918 25009KT P6SM SCT045 BKN120
     FM081900 27012G22KT P6SM BKN045
      TEMPO 0820/0824 6SM -SHRA BKN035
     FM090000 30010G18KT P6SM VCSH OVC025
     FM090500 29009G16KT P6SM BKN015 PROB30 0905/0911 6SM -SHSN
     FM091100 29010G18KT P6SM OVC025 PROB30 0911/0917 6SM -SHSN
      BKN015=



000
FTUS42 KFFC 081743
TAFFTY
TAF
KFTY 081743Z 0818/0918 25009KT P6SM SCT045 BKN120
     FM081900 27012G22KT P6SM BKN045
      TEMPO 0820/0824 6SM -SHRA BKN035
     FM090000 30010G18KT P6SM VCSH OVC025
     FM090500 29009G16KT P6SM BKN015 PROB30 0905/0911 6SM -SHSN
     FM091100 29010G18KT P6SM OVC025 PROB30 0911/0917 6SM -SHSN
      BKN015=



000
FTUS42 KFFC 081743
TAFCSG
TAF
KCSG 081743Z 0818/0918 28012G20KT P6SM SCT045 BKN080
     FM090000 29008KT P6SM BKN050
     FM091500 27011G20KT P6SM SCT045 BKN080=



000
FTUS42 KFFC 081743
TAFRYY
TAF
KRYY 081743Z 0818/0918 25009KT P6SM SCT045 BKN120
     FM081900 27012G22KT P6SM BKN045
      TEMPO 0820/0824 6SM -SHRA BKN035
     FM090000 30010G18KT P6SM VCSH OVC025
     FM090500 29009G16KT P6SM BKN015 PROB30 0905/0911 6SM -SHSN
     FM091100 29010G18KT P6SM OVC025 PROB30 0911/0917 6SM -SHSN
      BKN015=



000
FTUS42 KFFC 081743
TAFAHN
TAF
KAHN 081743Z 0818/0918 26012G21KT P6SM SCT035 BKN050
      TEMPO 0820/0824 6SM -SHRA BKN035
     FM090000 30010G19KT P6SM OVC025
     FM090500 29009G16KT P6SM BKN015
     FM091100 29010G18KT P6SM OVC025=



000
FTUS42 KFFC 081743
TAFMCN
TAF
KMCN 081743Z 0818/0918 26008KT P6SM SCT050 BKN120
     FM081900 27011G20KT P6SM SCT045 BKN080
     FM090200 28008KT P6SM BKN050
     FM091500 27011G20KT P6SM SCT045 BKN080=



000
FTUS42 KFFC 081611 AAB
TAFATL
TAF AMD
KATL 081611Z 0816/0918 28008KT P6SM SCT050 BKN120
     FM081800 27015G25KT P6SM BKN045
      TEMPO 0820/0824 6SM -SHRA BKN035
     FM090000 30012G21KT P6SM VCSH OVC025
     FM090400 29011G20KT P6SM -SHSN BKN015
     FM091100 29012G21KT P6SM OVC025 PROB30 0911/0917 6SM -SHSN
      BKN015=



000
FTUS42 KFFC 081348 AAA
TAFATL
TAF AMD
KATL 081348Z 0814/0918 25008KT P6SM SCT050 BKN120
     FM081600 26009KT P6SM BKN045
     FM081800 27015G25KT P6SM SCT035 BKN050
      TEMPO 0818/0822 6SM -SHRA BKN035
     FM090000 30012G21KT P6SM OVC025 PROB30 0900/0906 6SM -SHSN
      BKN015=



000
FTUS42 KFFC 081127
TAFFTY
TAF
KFTY 081127Z 0812/0912 25003KT P6SM SCT045 BKN120
     FM081600 26007KT P6SM BKN045
     FM081800 27012G22KT P6SM SCT035 BKN050
      TEMPO 0818/0822 6SM -SHRA BKN035
     FM090000 30010G19KT P6SM OVC025 PROB30 0900/0906 6SM -SHSN
      BKN015=



000
FTUS42 KFFC 081127
TAFRYY
TAF
KRYY 081127Z 0812/0912 25004KT P6SM SCT045 BKN120
     FM081500 26008KT P6SM BKN045
     FM081800 27014G24KT P6SM SCT035 BKN050
      TEMPO 0818/0822 6SM -SHRA BKN035
     FM090000 30011G20KT P6SM OVC025 PROB30 0900/0906 6SM -SHSN
      BKN015=



000
FTUS42 KFFC 081127
TAFAHN
TAF
KAHN 081127Z 0812/0912 24004KT P6SM SCT035 BKN100
     FM081600 25007KT P6SM BKN045
     FM081900 26012G21KT P6SM SCT035 BKN050
      TEMPO 0819/0823 6SM -SHRA BKN035
     FM090000 30010G19KT P6SM OVC025 PROB30 0900/0906 6SM -SHSN
      BKN015=



000
FTUS42 KFFC 081127
TAFPDK
TAF
KPDK 081127Z 0812/0912 25003KT P6SM SCT045 BKN120
     FM081600 26007KT P6SM BKN045
     FM081800 27012G22KT P6SM SCT035 BKN050
      TEMPO 0818/0822 6SM -SHRA BKN035
     FM090000 30010G20KT P6SM OVC025 PROB30 0900/0906 6SM -SHSN
      BKN015=



000
FTUS42 KFFC 081127
TAFMCN
TAF
KMCN 081127Z 0812/0912 25003KT P6SM SCT090 BKN250
     FM081500 26008KT P6SM SCT050 BKN120
     FM081900 27011G20KT P6SM SCT045 BKN080
     FM090200 28008KT P6SM BKN050=



000
FTUS42 KFFC 081127
TAFCSG
TAF
KCSG 081127Z 0812/0912 26004KT P6SM SCT090 BKN250
     FM081500 27007KT P6SM SCT050 BKN120
     FM081800 28012G20KT P6SM SCT045 BKN080
     FM090000 29008KT P6SM BKN050=



000
FTUS42 KFFC 081127
TAFATL
TAF
KATL 081127Z 0812/0918 25005KT P6SM SCT050 BKN120
     FM081600 26009KT P6SM BKN045
     FM081800 27015G25KT P6SM SCT035 BKN050
      TEMPO 0818/0822 6SM -SHRA BKN035
     FM090000 30012G21KT P6SM OVC025 PROB30 0900/0906 6SM -SHSN
      BKN015=



000
FTUS42 KFFC 080938 AAB
TAFFTY
TAF AMD
KFTY 080938Z 0810/0906 26003KT P6SM FEW120 SCT250
     FM081200 25003KT P6SM SCT045 BKN120
     FM081400 26007KT P6SM BKN035
     FM081800 27012G22KT P6SM SCT035 BKN050
      TEMPO 0818/0822 6SM -SHRA BKN035
     FM090000 30010G19KT P6SM OVC025 PROB30 0900/0906 6SM -SHSN
      BKN015=



000
FTUS42 KFFC 080938 AAB
TAFATL
TAF AMD
KATL 080938Z 0810/0912 26004KT P6SM FEW120 SCT250
     FM081200 25004KT P6SM SCT045 BKN120
     FM081400 26008KT P6SM BKN035
     FM081800 27015G25KT P6SM SCT035 BKN050
      TEMPO 0818/0822 6SM -SHRA BKN035
     FM090000 30012G21KT P6SM OVC025 PROB30 0900/0906 6SM -SHSN
      BKN015=



000
FTUS42 KFFC 080938 AAB
TAFPDK
TAF AMD
KPDK 080938Z 0810/0906 27004KT P6SM FEW120 SCT250
     FM081200 25003KT P6SM SCT045 BKN120
     FM081400 26007KT P6SM BKN035
     FM081800 27012G22KT P6SM SCT035 BKN050
      TEMPO 0818/0822 6SM -SHRA BKN035
     FM090000 30010G20KT P6SM OVC025 PROB30 0900/0906 6SM -SHSN
      BKN015=



000
FTUS42 KFFC 080733 AAA
TAFFTY
TAF AMD
KFTY 080733Z 0808/0906 26003KT P6SM BKN250
     FM081000 25003KT P6SM SCT045 BKN100
     FM081400 26007KT P6SM BKN035
     FM081800 27012G22KT P6SM SCT035 BKN050
      TEMPO 0818/0822 6SM -SHRA BKN035
     FM090000 30010G19KT P6SM OVC025 PROB30 0900/0906 6SM -SHSN
      BKN015=



000
FTUS42 KFFC 080733 AAA
TAFATL
TAF AMD
KATL 080733Z 0808/0912 26004KT P6SM SCT250
     FM081000 25004KT P6SM SCT045 BKN120
     FM081400 26008KT P6SM BKN035
     FM081800 27015G25KT P6SM SCT035 BKN050
      TEMPO 0818/0822 6SM -SHRA BKN035
     FM090000 30012G21KT P6SM OVC025 PROB30 0900/0906 6SM -SHSN
      BKN015=



000
FTUS42 KFFC 080733 AAA
TAFFTY
TAF AMD
KFTY 080733Z 0808/0906 26003KT P6SM BKN250
     FM081000 25003KT P6SM SCT045 BKN100
     FM081400 26007KT P6SM BKN035
     FM081800 27012G22KT P6SM SCT035 BKN050
      TEMPO 0818/0822 6SM -SHRA BKN035
     FM090000 30010G19KT P6SM OVC025 PROB30 0900/0906 6SM -SHSN
      BKN015=



000
FTUS42 KFFC 080733 AAA
TAFPDK
TAF AMD
KPDK 080733Z 0808/0906 27004KT P6SM BKN250
     FM081000 25003KT P6SM SCT045 BKN100
     FM081400 26007KT P6SM BKN035
     FM081800 27012G22KT P6SM SCT035 BKN050
      TEMPO 0818/0822 6SM -SHRA BKN035
     FM090000 30010G20KT P6SM OVC025 PROB30 0900/0906 6SM -SHSN
      BKN015=



000
FTUS42 KFFC 080733 AAA
TAFAHN
TAF AMD
KAHN 080733Z 0808/0906 27005KT P6SM BKN250
     FM081200 24004KT P6SM SCT035 BKN100
     FM081500 25007KT P6SM BKN035
     FM081800 26012G21KT P6SM SCT035 BKN050
      TEMPO 0819/0823 6SM -SHRA BKN035
     FM090000 30010G19KT P6SM OVC025 PROB30 0900/0906 6SM -SHSN
      BKN015=



000
FTUS42 KFFC 080733 AAA
TAFPDK
TAF AMD
KPDK 080733Z 0808/0906 27004KT P6SM BKN250
     FM081000 25003KT P6SM SCT045 BKN100
     FM081400 26007KT P6SM BKN035
     FM081800 27012G22KT P6SM SCT035 BKN050
      TEMPO 0818/0822 6SM -SHRA BKN035
     FM090000 30010G20KT P6SM OVC025 PROB30 0900/0906 6SM -SHSN
      BKN015=



000
FTUS42 KFFC 080733 AAA
TAFATL
TAF AMD
KATL 080733Z 0808/0912 26004KT P6SM SCT250
     FM081000 25004KT P6SM SCT045 BKN120
     FM081400 26008KT P6SM BKN035
     FM081800 27015G25KT P6SM SCT035 BKN050
      TEMPO 0818/0822 6SM -SHRA BKN035
     FM090000 30012G21KT P6SM OVC025 PROB30 0900/0906 6SM -SHSN
      BKN015=



000
FTUS42 KFFC 080733 AAA
TAFAHN
TAF AMD
KAHN 080733Z 0808/0906 27005KT P6SM BKN250
     FM081200 24004KT P6SM SCT035 BKN100
     FM081500 25007KT P6SM BKN035
     FM081800 26012G21KT P6SM SCT035 BKN050
      TEMPO 0819/0823 6SM -SHRA BKN035
     FM090000 30010G19KT P6SM OVC025 PROB30 0900/0906 6SM -SHSN
      BKN015=



000
FTUS42 KFFC 080520
TAFMCN
TAF
KMCN 080520Z 0806/0906 27006KT P6SM SCT250
     FM081200 25003KT P6SM SCT090 BKN250
     FM081400 26008KT P6SM SCT050 BKN100
     FM081800 27011G20KT P6SM SCT035 BKN050 PROB30 0818/0824 6SM
      -SHRA BKN035=



000
FTUS42 KFFC 080520
TAFCSG
TAF
KCSG 080520Z 0806/0906 29003KT P6SM SCT250
     FM081100 26004KT P6SM SCT090 BKN250
     FM081400 27007KT P6SM SCT050 BKN080
     FM081800 28012G20KT P6SM SCT035 BKN050 PROB30 0818/0824 6SM
      -SHRA BKN035=



000
FTUS42 KFFC 080520
TAFATL
TAF
KATL 080520Z 0806/0912 26004KT P6SM SCT250
     FM081000 25004KT P6SM SCT035 BKN120
     FM081400 26008KT P6SM BKN025
     FM081800 27015G25KT P6SM SCT035 BKN050
      TEMPO 0818/0822 6SM -SHRA BKN035
     FM090000 30012G21KT P6SM OVC025 PROB30 0900/0906 6SM -SHSN
      BKN015=



000
FTUS42 KFFC 080520
TAFPDK
TAF
KPDK 080520Z 0806/0906 27004KT P6SM BKN250
     FM080900 25003KT P6SM SCT035 BKN100
     FM081400 26007KT P6SM OVC025
     FM081800 27012G22KT P6SM SCT035 BKN050
      TEMPO 0818/0822 6SM -SHRA BKN035
     FM090000 30010G20KT P6SM OVC025 PROB30 0900/0906 6SM -SHSN
      BKN015=



000
FTUS42 KFFC 080520
TAFRYY
TAF
KRYY 080520Z 0806/0906 27003KT P6SM BKN250
     FM080800 25003KT P6SM SCT035 BKN100
     FM081300 26007KT P6SM OVC025
     FM081700 27014G23KT P6SM SCT035 BKN050
      TEMPO 0817/0821 6SM -SHRA BKN035
     FM082300 30011G20KT P6SM OVC025 PROB30 0823/0905 6SM -SHSN
      BKN015
      AMD NOT SKED TIL 081200=



000
FTUS42 KFFC 080520
TAFAHN
TAF
KAHN 080520Z 0806/0906 27005KT P6SM BKN250
     FM081000 24004KT P6SM SCT035 BKN100
     FM081400 25007KT P6SM OVC025
     FM081800 26012G21KT P6SM SCT035 BKN050
      TEMPO 0819/0823 6SM -SHRA BKN035
     FM090000 30010G19KT P6SM OVC025 PROB30 0900/0906 6SM -SHSN
      BKN015=



000
FTUS42 KFFC 080520
TAFMCN
TAF
KMCN 080520Z 0806/0906 27006KT P6SM SCT250
     FM081200 25003KT P6SM SCT090 BKN250
     FM081400 26008KT P6SM SCT050 BKN100
     FM081800 27011G20KT P6SM SCT035 BKN050 PROB30 0818/0824 6SM
      -SHRA BKN035=



000
FTUS42 KFFC 080520
TAFCSG
TAF
KCSG 080520Z 0806/0906 29003KT P6SM SCT250
     FM081100 26004KT P6SM SCT090 BKN250
     FM081400 27007KT P6SM SCT050 BKN080
     FM081800 28012G20KT P6SM SCT035 BKN050 PROB30 0818/0824 6SM
      -SHRA BKN035=



000
FTUS42 KFFC 080520
TAFFTY
TAF
KFTY 080520Z 0806/0906 26003KT P6SM BKN250
     FM080900 25003KT P6SM SCT035 BKN100
     FM081400 26007KT P6SM OVC025
     FM081800 27012G22KT P6SM SCT035 BKN050
      TEMPO 0818/0822 6SM -SHRA BKN035
     FM090000 30010G19KT P6SM OVC025 PROB30 0900/0906 6SM -SHSN
      BKN015=



000
FTUS42 KFFC 080333 AAB
TAFATL
TAF AMD
KATL 080333Z 0804/0906 28005KT P6SM SCT250
     FM081000 25004KT P6SM SCT035 BKN120
     FM081400 26008KT P6SM BKN025
     FM081800 27015G25KT P6SM SCT035 BKN050
      TEMPO 0818/0822 6SM -SHRA BKN035
     FM090000 30011KT P6SM OVC025 PROB30 0900/0906 6SM -SHSN BKN015=



000
FTUS42 KFFC 080140 AAA
TAFATL
TAF AMD
KATL 080140Z 0802/0906 29006KT P6SM SCT250
     FM080900 25004KT P6SM SCT035 BKN100
     FM081400 26008KT P6SM OVC025
     FM081800 27015G25KT P6SM SCT035 BKN050
      TEMPO 0818/0822 6SM -SHRA BKN035
     FM090000 30011KT P6SM OVC025 PROB30 0900/0906 6SM -SHSN BKN015=



000
FTUS42 KFFC 072323
TAFATL
TAF
KATL 072323Z 0800/0906 30007KT P6SM BKN250
     FM080900 25004KT P6SM SCT035 BKN100
     FM081400 26008KT P6SM OVC025
     FM081800 27015G25KT P6SM SCT035 BKN050
      TEMPO 0818/0822 6SM -SHRA BKN035
     FM090000 30011KT P6SM OVC025 PROB30 0900/0906 6SM -SHSN BKN015=



000
FTUS42 KFFC 072323
TAFAHN
TAF
KAHN 072323Z 0800/0824 28005KT P6SM BKN250
     FM081000 24004KT P6SM SCT035 BKN100
     FM081400 25007KT P6SM OVC025
     FM081800 26010G18KT P6SM SCT035 BKN050 PROB30 0818/0824 6SM
      -SHRA BKN035=



000
FTUS42 KFFC 072323
TAFRYY
TAF
KRYY 072323Z 0800/0824 29005KT P6SM BKN250
     FM080800 25003KT P6SM SCT035 BKN100
     FM081300 26007KT P6SM OVC025
     FM081700 27010G18KT P6SM SCT035 BKN050 PROB30 0818/0824 6SM
      -SHRA BKN035
      AMD NOT SKED 0804/0812=



000
FTUS42 KFFC 072323
TAFCSG
TAF
KCSG 072323Z 0800/0824 31006KT P6SM SCT250
     FM081000 26004KT P6SM SCT090 BKN250
     FM081400 27007KT P6SM SCT050 BKN080
     FM081800 28010G18KT P6SM SCT035 BKN050 PROB30 0818/0824 6SM
      -SHRA BKN035=



000
FTUS42 KFFC 072323
TAFMCN
TAF
KMCN 072323Z 0800/0824 29006KT P6SM SCT250
     FM081000 25003KT P6SM SCT090 BKN250
     FM081400 26008KT P6SM SCT050 BKN080
     FM081800 27010G18KT P6SM SCT035 BKN050 PROB30 0818/0824 6SM
      -SHRA BKN035=



000
FTUS42 KFFC 072323
TAFPDK
TAF
KPDK 072323Z 0800/0824 29005KT P6SM BKN250
     FM080900 25003KT P6SM SCT035 BKN100
     FM081400 26007KT P6SM OVC025
     FM081800 27010G18KT P6SM SCT035 BKN050 PROB30 0818/0824 6SM
      -SHRA BKN035=



000
FTUS42 KFFC 072323
TAFFTY
TAF
KFTY 072323Z 0800/0824 29005KT P6SM BKN250
     FM080900 25003KT P6SM SCT035 BKN100
     FM081400 26007KT P6SM OVC025
     FM081800 27010G18KT P6SM SCT035 BKN050 PROB30 0818/0824 6SM
      -SHRA BKN035=



000
FTUS42 KFFC 072323
TAFPDK
TAF
KPDK 072323Z 0800/0824 29005KT P6SM BKN250
     FM080900 25003KT P6SM SCT035 BKN100
     FM081400 26007KT P6SM OVC025
     FM081800 27010G18KT P6SM SCT035 BKN050 PROB30 0818/0824 6SM
      -SHRA BKN035=



000
FTUS42 KFFC 072323
TAFFTY
TAF
KFTY 072323Z 0800/0824 29005KT P6SM BKN250
     FM080900 25003KT P6SM SCT035 BKN100
     FM081400 26007KT P6SM OVC025
     FM081800 27010G18KT P6SM SCT035 BKN050 PROB30 0818/0824 6SM
      -SHRA BKN035=



000
FTUS42 KFFC 072323
TAFRYY
TAF
KRYY 072323Z 0800/0824 29005KT P6SM BKN250
     FM080800 25003KT P6SM SCT035 BKN100
     FM081300 26007KT P6SM OVC025
     FM081700 27010G18KT P6SM SCT035 BKN050 PROB30 0818/0824 6SM
      -SHRA BKN035
      AMD NOT SKED 0804/0812=



000
FTUS42 KFFC 072323
TAFATL
TAF
KATL 072323Z 0800/0906 30007KT P6SM BKN250
     FM080900 25004KT P6SM SCT035 BKN100
     FM081400 26008KT P6SM OVC025
     FM081800 27015G25KT P6SM SCT035 BKN050
      TEMPO 0818/0822 6SM -SHRA BKN035
     FM090000 30011KT P6SM OVC025 PROB30 0900/0906 6SM -SHSN BKN015=



000
FTUS42 KFFC 072323
TAFMCN
TAF
KMCN 072323Z 0800/0824 29006KT P6SM SCT250
     FM081000 25003KT P6SM SCT090 BKN250
     FM081400 26008KT P6SM SCT050 BKN080
     FM081800 27010G18KT P6SM SCT035 BKN050 PROB30 0818/0824 6SM
      -SHRA BKN035=



000
FTUS42 KFFC 072323
TAFAHN
TAF
KAHN 072323Z 0800/0824 28005KT P6SM BKN250
     FM081000 24004KT P6SM SCT035 BKN100
     FM081400 25007KT P6SM OVC025
     FM081800 26010G18KT P6SM SCT035 BKN050 PROB30 0818/0824 6SM
      -SHRA BKN035=



000
FTUS42 KFFC 072323
TAFCSG
TAF
KCSG 072323Z 0800/0824 31006KT P6SM SCT250
     FM081000 26004KT P6SM SCT090 BKN250
     FM081400 27007KT P6SM SCT050 BKN080
     FM081800 28010G18KT P6SM SCT035 BKN050 PROB30 0818/0824 6SM
      -SHRA BKN035=



000
FTUS42 KFFC 072146 AAB
TAFATL
TAF AMD
KATL 072146Z 0722/0824 32011KT P6SM FEW250
     FM080000 29006KT P6SM SCT250
     FM080800 25007KT P6SM SCT030 BKN200
     FM081200 24007KT P6SM BKN025
     FM081600 27013G20KT P6SM BKN025 PROB30 0818/0824 -SHRA=



000
FTUS42 KFFC 072146 AAB
TAFATL
TAF AMD
KATL 072146Z 0722/0824 32011KT P6SM FEW250
     FM080000 29006KT P6SM SCT250
     FM080800 25007KT P6SM SCT030 BKN200
     FM081200 24007KT P6SM BKN025
     FM081600 27013G20KT P6SM BKN025 PROB30 0818/0824 -SHRA=



000
FTUS42 KFFC 072013 AAA
TAFATL
TAF AMD
KATL 072013Z 0720/0824 33011G18KT P6SM FEW250
     FM080000 29006KT P6SM SCT250
     FM080800 25007KT P6SM SCT030 BKN200
     FM081200 24007KT P6SM BKN025
     FM081600 27013G20KT P6SM BKN025 PROB30 0818/0824 -SHRA=



000
FTUS42 KFFC 071736
TAFRYY
TAF
KRYY 071736Z 0718/0818 34010G17KT P6SM FEW250
     FM072300 29004KT P6SM SCT250
     FM080800 25006KT P6SM SCT030 BKN200
     FM081200 23006KT P6SM BKN025
     FM081600 26011G18KT P6SM BKN025=



000
FTUS42 KFFC 071736
TAFATL
TAF
KATL 071736Z 0718/0824 33011G18KT P6SM FEW250
     FM080000 29006KT P6SM SCT250
     FM080800 25007KT P6SM SCT030 BKN200
     FM081200 24007KT P6SM BKN025
     FM081600 27013G20KT P6SM BKN025 PROB30 0818/0824 -SHRA=



000
FTUS42 KFFC 071736
TAFMCN
TAF
KMCN 071736Z 0718/0818 34011G17KT P6SM FEW250
     FM072200 29006KT P6SM FEW250
     FM080800 24006KT P6SM FEW250
     FM081400 25010G17KT P6SM SCT060=



000
FTUS42 KFFC 071736
TAFPDK
TAF
KPDK 071736Z 0718/0818 33010G17KT P6SM FEW250
     FM072300 29004KT P6SM SCT250
     FM080800 25006KT P6SM SCT030 BKN200
     FM081200 23006KT P6SM BKN025
     FM081600 26011G18KT P6SM BKN025=



000
FTUS42 KFFC 071736
TAFAHN
TAF
KAHN 071736Z 0718/0818 32008G14KT P6SM FEW250
     FM072100 29005KT P6SM SCT250
     FM081000 27006KT P6SM SCT030 BKN200
     FM081500 26011G18KT P6SM BKN025=



000
FTUS42 KFFC 071736
TAFCSG
TAF
KCSG 071736Z 0718/0818 35011G17KT P6SM FEW250
     FM072200 29006KT P6SM FEW250
     FM080800 24006KT P6SM FEW250
     FM081400 28010G17KT P6SM SCT060=



000
FTUS42 KFFC 071736
TAFFTY
TAF
KFTY 071736Z 0718/0818 34010G17KT P6SM FEW250
     FM072300 29004KT P6SM SCT250
     FM080800 25006KT P6SM SCT030 BKN200
     FM081200 23006KT P6SM BKN025
     FM081600 26011G18KT P6SM BKN025=



000
FTUS42 KFFC 071559 AAB
TAFATL
TAF AMD
KATL 071559Z 0716/0818 32011G18KT P6SM FEW250
     FM080000 29006KT P6SM SCT250
     FM080800 25007KT P6SM SCT030 BKN200
     FM081200 24007KT P6SM BKN025=



000
FTUS42 KFFC 071350 AAA
TAFATL
TAF AMD
KATL 071350Z 0714/0818 32007KT P6SM FEW250
     FM071500 32011G18KT P6SM FEW250
     FM080000 29006KT P6SM SCT250
     FM080800 25007KT P6SM SCT030 BKN200
     FM081200 24007KT P6SM BKN025=



000
FTUS42 KFFC 071120
TAFPDK
TAF
KPDK 071120Z 0712/0812 35004KT P6SM SCT250
     FM071500 32010G17KT P6SM FEW250
     FM072300 29004KT P6SM SCT250
     FM080800 25006KT P6SM SCT030 BKN200=



000
FTUS42 KFFC 071120
TAFATL
TAF
KATL 071120Z 0712/0818 32007KT P6SM FEW250
     FM071500 32011G18KT P6SM FEW250
     FM080000 29006KT P6SM SCT250
     FM080800 25007KT P6SM SCT030 BKN200
     FM081200 24007KT P6SM BKN025=



000
FTUS42 KFFC 071120
TAFFTY
TAF
KFTY 071120Z 0712/0812 33004KT P6SM SCT250
     FM071600 32010G17KT P6SM FEW250
     FM072300 29004KT P6SM SCT250
     FM080800 25006KT P6SM SCT030 BKN200=



000
FTUS42 KFFC 071120
TAFCSG
TAF
KCSG 071120Z 0712/0812 36006KT P6SM SCT250
     FM071600 33011G17KT P6SM SCT250
     FM072200 31006KT P6SM SCT250=



000
FTUS42 KFFC 071120
TAFAHN
TAF
KAHN 071120Z 0712/0812 33005KT P6SM SCT150 BKN250
     FM071600 32008G16KT P6SM SCT250
     FM072100 29005KT P6SM SCT250
     FM081100 27006KT P6SM FEW030 BKN200=



000
FTUS42 KFFC 071120
TAFRYY
TAF
KRYY 071120Z 0712/0812 34004KT P6SM SCT250
     FM071500 32010G18KT P6SM FEW250
     FM072300 29004KT P6SM SCT250
     FM080800 25006KT P6SM SCT030 BKN200=



000
FTUS42 KFFC 071120
TAFMCN
TAF
KMCN 071120Z 0712/0812 32005KT P6SM FEW150 SCT250
     FM071600 31011G17KT P6SM SCT250
     FM072200 29006KT P6SM SCT250=



000
FTUS42 KFFC 070934 AAB
TAFATL
TAF AMD
KATL 070934Z 0710/0812 33007KT P6SM FEW250
     FM071500 32011G18KT P6SM FEW250
     FM080000 29006KT P6SM SCT250
     FM080800 25007KT P6SM SCT030 BKN200=



000
FTUS42 KFFC 070731 AAA
TAFATL
TAF AMD
KATL 070731Z 0708/0812 33006KT P6SM FEW250
     FM071500 32011G18KT P6SM FEW250
     FM080000 29006KT P6SM SCT250
     FM080800 25007KT P6SM SCT030 BKN200=



000
FTUS42 KFFC 070731 AAA
TAFATL
TAF AMD
KATL 070731Z 0708/0812 33006KT P6SM FEW250
     FM071500 32011G18KT P6SM FEW250
     FM080000 29006KT P6SM SCT250
     FM080800 25007KT P6SM SCT030 BKN200=



000
FTUS42 KFFC 070527
TAFMCN
TAF
KMCN 070527Z 0706/0806 35004KT P6SM SCT040 BKN250
     FM071000 33004KT P6SM SCT150
     FM071600 31011G17KT P6SM SCT250
     FM072200 29006KT P6SM SCT250=



000
FTUS42 KFFC 070527
TAFFTY
TAF
KFTY 070527Z 0706/0806 33004KT P6SM SCT250
     FM071600 32010G17KT P6SM FEW250
     FM072300 29004KT P6SM SCT250=



000
FTUS42 KFFC 070527
TAFCSG
TAF
KCSG 070527Z 0706/0806 36004KT P6SM SCT250
     FM071600 33011G17KT P6SM SCT250
     FM072200 31006KT P6SM SCT250=



000
FTUS42 KFFC 070527
TAFATL
TAF
KATL 070527Z 0706/0812 33006KT P6SM FEW250
     FM071500 32011G18KT P6SM FEW250
     FM080000 29006KT P6SM SCT250
     FM080800 25007KT P6SM SCT030 BKN200=



000
FTUS42 KFFC 070527
TAFPDK
TAF
KPDK 070527Z 0706/0806 35004KT P6SM SCT250
     FM071500 32010G17KT P6SM FEW250
     FM072300 29004KT P6SM SCT250=



000
FTUS42 KFFC 070527
TAFAHN
TAF
KAHN 070527Z 0706/0806 05005KT P6SM SCT090
     FM071000 35004KT P6SM SCT150 BKN250
     FM071600 32008G16KT P6SM SCT250
     FM072100 29007KT P6SM SCT250=



000
FTUS42 KFFC 070527
TAFRYY
TAF
KRYY 070527Z 0706/0806 34004KT P6SM SCT250
     FM071500 32010G18KT P6SM FEW250
     FM072300 29004KT P6SM SCT250
      AMD NOT SKED TIL 071200=



    US Dept of Commerce
    National Oceanic and Atmospheric Administration
    National Weather Service
    1325 East West Highway
    Silver Spring, MD 20910
    Page Author: NWS Internet Services Team
Disclaimer
Information Quality
Credits
Glossary
Privacy Policy
Freedom of Information Act (FOIA)
About Us
Career Opportunities